Flour Bluff, TX

9:38 PM CST on December 04, 2016 (GMT -0600)
Padre Island | | Change Station
Active Advisory: Coastal Flood Advisory

Elev 35 ft 27.60 °N, 97.24 °W | Updated 1 second ago

Light Rain
Light Rain Mist
55.7 °F
Feels Like 55.7 °F
N
17.0
Wind Variable Wind from North
Gusts 17.0 mph

Today
High -- | Low -- °F
--% Chance of Precip.
Yesterday
High -- | Low -- °F
Precip. -- in
Pressure 29.92 in
Visibility 3.0 miles
Clouds Overcast 600 ft
Dew Point 55 °F
Humidity 97%
Rainfall 0.13 in
Snow Depth Not available.
7:04 AM 5:33 PM
Waxing Crescent, 28% visible
SPECI KNGP 050308Z AUTO 01019KT 3SM -RA BR OVC006 11/11 A2992 RMK AO2 CIG 005V010 P0000 T01110111 $
Pressure 29.92 in
Visibility 3.0 miles
Clouds Overcast 600 ft
Dew Point 55 °F
Humidity 97%
Rainfall 0.13 in
Snow Depth Not available.
7:04 AM 5:33 PM
Waxing Crescent, 28% visible
SPECI KNGP 050308Z AUTO 01019KT 3SM -RA BR OVC006 11/11 A2992 RMK AO2 CIG 005V010 P0000 T01110111 $

10-Day Weather Forecast

Almanac

Astronomy

Dec. 04, 2016 Rise Set
Actual Time
Civil Twilight
Nautical Twilight
Astronomical Twilight
Moon
Length of Visible Light
Length of Day
Tomorrow will be .
, % of the Moon is Illuminated

Today's Extremes

State Highs State Lows

Community

WunderPhotos

Upload Photos

1,955,752 photos uploaded!

WunderBlog® & News

Nearby

Air Quality

  Air Quality AQ Index Pollutant
Not available.

Snow Depth

Station Depth Elevation

Earthquake Activity

City Distance Mag. Time & Date
Minimum magnitude displayed is 2.5.

Coastal Water Temperatures

Place Temperature

Stations

Nearby Weather Stations

Station Location Temp. Windchill Dew Point Humidity Wind Precip. Elev Updated Type
                   

Watches & Warnings

Coastal Flood Advisory
Issued: 8:15 PM CST Dec. 4, 2016 – National Weather Service

... Coastal Flood Advisory remains in effect until 4 am CST
Monday...

* coastal flooding... actual tide levels will run approximately 2
feet above mean sea level or more during high tide. High tide
at bob Hall pier will occur at 819 PM tonight... while high
tide at Port Aransas is at 818 PM tonight.

* Timing... this afternoon through early Sunday morning.

* Impacts... persistent water levels will likely reach the dunes
of coastal Nueces and Kleberg counties. Minor beach flooding
and minor erosion will continue to be possible. The ability to
drive along the beaches will range from limited to impossible.
Lowest areas of North Beach in Corpus Christi and along Laguna
shores drive in Flour Bluff may also be impacted.

Precautionary/preparedness actions...

A coastal Flood Advisory indicates that onshore winds and tides
will combine to generate flooding of low areas along the shore.



Johnstone